Roscoe, MT

10:07 AM MDT on September 02, 2014 (GMT -0600)
RAWS FISHTAIL MT US | Change Station
CLOSE
Current Station
Personal Weather Station
Location: Fishtail, MT
Elevation: 4549 ft
Nearby Weather Stations

Elev 4549 ft 45.46 °N, 109.57 °W | Updated 45 minutes ago

Partly Cloudy
Partly Cloudy
63 °F
Feels Like 63 °F
N
6
Wind Variable Wind from SE
Gusts 10.0 mph

Today
High -- | Low -- °F
--% Chance of Precip.
Yesterday
High -- | Low -- °F
Precip. -- in
6:40 AM 7:53 PM
First Quarter, 52% visible
Pressure 29.88 in
Visibility 10.0 miles
Clouds Few 10000 ft
Scattered Clouds 22000 ft
Dew Point 40 °F
Humidity 42%
Rainfall 0.00 in
Snow Depth 0 in , 1 in
UV 3 out of 12
Pollen 7.80 out of 12
Air Quality Not available.
Flu Activity Not available.
METAR KBIL 021553Z 21006KT 10SM FEW100 SCT220 16/06 A2994 RMK AO2 SLP118 T01610061

More Conditions Fewer Conditions

Pressure 29.88 in
Visibility 10.0 miles
Clouds Few 10000 ft
Scattered Clouds 22000 ft
Dew Point 40 °F
Humidity 42%
Rainfall 0.00 in
Snow Depth 0 in , 1 in
UV 3 out of 12
Pollen 7.80 out of 12
Air Quality Not available.
Flu Activity Not available.
METAR KBIL 021553Z 21006KT 10SM FEW100 SCT220 16/06 A2994 RMK AO2 SLP118 T01610061

More Conditions Fewer Conditions

10-Day Weather Forecast

Almanac

Astronomy

Sep. 02, 2014 Rise Set
Actual Time 6:40 AM MDT 7:53 PM MDT
Civil Twilight 6:10 AM MDT 8:23 PM MDT
Nautical Twilight 5:33 AM MDT 9:00 PM MDT
Astronomical Twilight 4:54 AM MDT 9:38 PM MDT
Moon 2:48 PM MDT No Moon Set
Length of Visible Light 14h 13m
Length of Day
13h 12m
Tomorrow will be 3m 3s shorter.
First Quarter, 52% of the Moon is Illuminated
Today
First Quarter
Sep 8
Full
Sep 15
Last Quarter
Sep 24
New
Oct 1
First Quarter

Today's Extremes

State Highs State Lows

Community

WunderPhotos

Upload Photos

1,749,706 photos uploaded!

Nearby

Snow Depth

Station Depth Elevation
Burnt Mountain 0 in 5880 ft
Cole Creek 1 in 7850 ft
White Mill 1 in 8700 ft
Placer Basin 0 in 8830 ft
Fisher Creek 0 in 9100 ft

Earthquake Activity

City Distance Mag. Time & Date
Driggs, Idaho 132 miles 3.8 2:09 PM MDT
2014-08-30
Minimum magnitude displayed is 2.5.

Coastal Water Temperatures

Place Temperature
No Stations Reporting

Nearby Weather Stations